sensor_id;sensor_type;location;lat;lon;timestamp;P1;durP1;ratioP1;P2;durP2;ratioP2
71462;SDS011;59266;52.608;13.260;2024-03-02T00:00:10;70.45;;;25.52;;
71462;SDS011;59266;52.608;13.260;2024-03-02T00:02:46;62.90;;;24.13;;
71462;SDS011;59266;52.608;13.260;2024-03-02T00:05:17;57.33;;;24.23;;
71462;SDS011;59266;52.608;13.260;2024-03-02T00:07:47;66.97;;;25.17;;
71462;SDS011;59266;52.608;13.260;2024-03-02T00:10:25;86.85;;;25.23;;
71462;SDS011;59266;52.608;13.260;2024-03-02T00:12:56;55.63;;;23.35;;
71462;SDS011;59266;52.608;13.260;2024-03-02T00:15:31;68.70;;;23.52;;
71462;SDS011;59266;52.608;13.260;2024-03-02T00:18:20;59.15;;;23.15;;
71462;SDS011;59266;52.608;13.260;2024-03-02T00:24:44;71.22;;;23.75;;
71462;SDS011;59266;52.608;13.260;2024-03-02T00:27:12;60.03;;;24.52;;
71462;SDS011;59266;52.608;13.260;2024-03-02T00:29:42;64.90;;;23.58;;
71462;SDS011;59266;52.608;13.260;2024-03-02T00:32:12;65.95;;;26.73;;
71462;SDS011;59266;52.608;13.260;2024-03-02T00:34:42;59.47;;;24.15;;
71462;SDS011;59266;52.608;13.260;2024-03-02T00:37:08;66.88;;;24.90;;
71462;SDS011;59266;52.608;13.260;2024-03-02T00:39:35;67.70;;;25.55;;
71462;SDS011;59266;52.608;13.260;2024-03-02T00:42:02;63.67;;;25.92;;
71462;SDS011;59266;52.608;13.260;2024-03-02T00:44:29;71.43;;;26.63;;
71462;SDS011;59266;52.608;13.260;2024-03-02T00:47:00;65.43;;;23.38;;
71462;SDS011;59266;52.608;13.260;2024-03-02T00:49:27;66.32;;;26.15;;
71462;SDS011;59266;52.608;13.260;2024-03-02T00:51:54;65.65;;;26.75;;
71462;SDS011;59266;52.608;13.260;2024-03-02T00:54:30;72.70;;;27.42;;
71462;SDS011;59266;52.608;13.260;2024-03-02T00:56:57;64.45;;;26.05;;
71462;SDS011;59266;52.608;13.260;2024-03-02T00:59:24;62.92;;;24.50;;
71462;SDS011;59266;52.608;13.260;2024-03-02T01:01:51;65.05;;;26.23;;
71462;SDS011;59266;52.608;13.260;2024-03-02T01:04:18;60.38;;;25.75;;
71462;SDS011;59266;52.608;13.260;2024-03-02T01:06:44;72.93;;;25.30;;
71462;SDS011;59266;52.608;13.260;2024-03-02T01:09:12;57.33;;;25.45;;
71462;SDS011;59266;52.608;13.260;2024-03-02T01:11:40;63.95;;;27.02;;
71462;SDS011;59266;52.608;13.260;2024-03-02T01:14:06;61.92;;;24.33;;
71462;SDS011;59266;52.608;13.260;2024-03-02T01:16:33;64.97;;;24.08;;
71462;SDS011;59266;52.608;13.260;2024-03-02T01:18:59;68.93;;;27.83;;
71462;SDS011;59266;52.608;13.260;2024-03-02T01:21:32;72.57;;;25.80;;
71462;SDS011;59266;52.608;13.260;2024-03-02T01:23:59;76.30;;;26.70;;
71462;SDS011;59266;52.608;13.260;2024-03-02T01:26:26;57.33;;;23.77;;
71462;SDS011;59266;52.608;13.260;2024-03-02T01:28:52;60.25;;;24.15;;
71462;SDS011;59266;52.608;13.260;2024-03-02T01:31:19;61.53;;;24.77;;
71462;SDS011;59266;52.608;13.260;2024-03-02T01:33:46;62.75;;;23.55;;
71462;SDS011;59266;52.608;13.260;2024-03-02T01:36:12;62.75;;;25.55;;
71462;SDS011;59266;52.608;13.260;2024-03-02T01:38:39;76.10;;;27.35;;
71462;SDS011;59266;52.608;13.260;2024-03-02T01:41:06;69.05;;;26.85;;
71462;SDS011;59266;52.608;13.260;2024-03-02T01:43:33;67.50;;;25.92;;
71462;SDS011;59266;52.608;13.260;2024-03-02T01:46:01;73.43;;;26.88;;
71462;SDS011;59266;52.608;13.260;2024-03-02T01:48:28;79.60;;;26.17;;
71462;SDS011;59266;52.608;13.260;2024-03-02T01:50:54;65.03;;;26.13;;
71462;SDS011;59266;52.608;13.260;2024-03-02T01:53:21;86.80;;;28.67;;
71462;SDS011;59266;52.608;13.260;2024-03-02T01:55:48;94.43;;;30.50;;
71462;SDS011;59266;52.608;13.260;2024-03-02T01:58:14;91.55;;;28.58;;
71462;SDS011;59266;52.608;13.260;2024-03-02T02:00:41;80.32;;;28.40;;
71462;SDS011;59266;52.608;13.260;2024-03-02T02:03:08;87.18;;;29.52;;
71462;SDS011;59266;52.608;13.260;2024-03-02T02:05:35;95.25;;;30.58;;
71462;SDS011;59266;52.608;13.260;2024-03-02T02:08:01;98.88;;;29.83;;
71462;SDS011;59266;52.608;13.260;2024-03-02T02:10:28;85.10;;;29.00;;
71462;SDS011;59266;52.608;13.260;2024-03-02T02:12:55;92.20;;;28.42;;
71462;SDS011;59266;52.608;13.260;2024-03-02T02:15:28;80.88;;;27.38;;
71462;SDS011;59266;52.608;13.260;2024-03-02T02:17:56;81.88;;;28.73;;
71462;SDS011;59266;52.608;13.260;2024-03-02T02:23:09;85.40;;;27.63;;
71462;SDS011;59266;52.608;13.260;2024-03-02T02:25:36;75.05;;;27.27;;
71462;SDS011;59266;52.608;13.260;2024-03-02T02:28:03;92.03;;;27.80;;
71462;SDS011;59266;52.608;13.260;2024-03-02T02:30:30;79.20;;;28.38;;
71462;SDS011;59266;52.608;13.260;2024-03-02T02:32:58;83.18;;;29.15;;
71462;SDS011;59266;52.608;13.260;2024-03-02T02:35:25;92.90;;;29.17;;
71462;SDS011;59266;52.608;13.260;2024-03-02T02:37:53;97.85;;;30.02;;
71462;SDS011;59266;52.608;13.260;2024-03-02T02:40:20;79.43;;;28.75;;
71462;SDS011;59266;52.608;13.260;2024-03-02T02:42:48;94.65;;;29.27;;
71462;SDS011;59266;52.608;13.260;2024-03-02T02:45:14;93.03;;;29.33;;
71462;SDS011;59266;52.608;13.260;2024-03-02T02:47:42;105.65;;;30.63;;
71462;SDS011;59266;52.608;13.260;2024-03-02T02:50:11;99.95;;;29.58;;
71462;SDS011;59266;52.608;13.260;2024-03-02T02:52:39;105.20;;;31.38;;
71462;SDS011;59266;52.608;13.260;2024-03-02T02:55:07;119.20;;;32.42;;
71462;SDS011;59266;52.608;13.260;2024-03-02T02:57:35;96.70;;;32.00;;
71462;SDS011;59266;52.608;13.260;2024-03-02T03:00:05;107.32;;;30.52;;
71462;SDS011;59266;52.608;13.260;2024-03-02T03:02:37;105.15;;;32.25;;
71462;SDS011;59266;52.608;13.260;2024-03-02T03:05:05;117.28;;;32.67;;
71462;SDS011;59266;52.608;13.260;2024-03-02T03:07:32;131.48;;;34.85;;
71462;SDS011;59266;52.608;13.260;2024-03-02T03:10:00;107.13;;;32.15;;
71462;SDS011;59266;52.608;13.260;2024-03-02T03:12:27;120.78;;;33.75;;
71462;SDS011;59266;52.608;13.260;2024-03-02T03:14:54;116.45;;;32.75;;
71462;SDS011;59266;52.608;13.260;2024-03-02T03:17:21;124.57;;;34.50;;
71462;SDS011;59266;52.608;13.260;2024-03-02T03:19:49;115.90;;;33.42;;
71462;SDS011;59266;52.608;13.260;2024-03-02T03:22:16;129.48;;;33.78;;
71462;SDS011;59266;52.608;13.260;2024-03-02T03:24:43;108.72;;;32.33;;
71462;SDS011;59266;52.608;13.260;2024-03-02T03:27:10;131.75;;;33.95;;
71462;SDS011;59266;52.608;13.260;2024-03-02T03:29:37;134.05;;;35.75;;
71462;SDS011;59266;52.608;13.260;2024-03-02T03:32:04;138.75;;;36.30;;
71462;SDS011;59266;52.608;13.260;2024-03-02T03:34:33;118.97;;;34.83;;
71462;SDS011;59266;52.608;13.260;2024-03-02T03:36:59;147.25;;;35.85;;
71462;SDS011;59266;52.608;13.260;2024-03-02T03:39:26;126.88;;;34.13;;
71462;SDS011;59266;52.608;13.260;2024-03-02T03:41:53;149.18;;;36.03;;
71462;SDS011;59266;52.608;13.260;2024-03-02T03:44:20;133.07;;;34.97;;
71462;SDS011;59266;52.608;13.260;2024-03-02T03:46:46;139.52;;;34.08;;
71462;SDS011;59266;52.608;13.260;2024-03-02T03:49:13;145.05;;;34.13;;
71462;SDS011;59266;52.608;13.260;2024-03-02T03:51:40;111.50;;;33.53;;
71462;SDS011;59266;52.608;13.260;2024-03-02T03:54:06;115.43;;;32.50;;
71462;SDS011;59266;52.608;13.260;2024-03-02T03:56:33;113.25;;;32.20;;
71462;SDS011;59266;52.608;13.260;2024-03-02T03:58:59;114.95;;;32.10;;
71462;SDS011;59266;52.608;13.260;2024-03-02T04:01:26;111.60;;;33.17;;
71462;SDS011;59266;52.608;13.260;2024-03-02T04:03:52;123.47;;;33.67;;
71462;SDS011;59266;52.608;13.260;2024-03-02T04:06:19;152.70;;;35.00;;
71462;SDS011;59266;52.608;13.260;2024-03-02T04:08:46;137.57;;;35.17;;
71462;SDS011;59266;52.608;13.260;2024-03-02T04:11:13;145.25;;;34.90;;
71462;SDS011;59266;52.608;13.260;2024-03-02T04:13:39;130.45;;;33.95;;
71462;SDS011;59266;52.608;13.260;2024-03-02T04:16:06;118.30;;;33.30;;
71462;SDS011;59266;52.608;13.260;2024-03-02T04:18:32;107.47;;;31.98;;
71462;SDS011;59266;52.608;13.260;2024-03-02T04:20:59;141.20;;;34.50;;
71462;SDS011;59266;52.608;13.260;2024-03-02T04:23:26;116.72;;;33.13;;
71462;SDS011;59266;52.608;13.260;2024-03-02T04:25:53;117.43;;;32.92;;
71462;SDS011;59266;52.608;13.260;2024-03-02T04:28:19;115.80;;;32.70;;
71462;SDS011;59266;52.608;13.260;2024-03-02T04:30:46;119.15;;;32.97;;
71462;SDS011;59266;52.608;13.260;2024-03-02T04:33:12;140.35;;;34.95;;
71462;SDS011;59266;52.608;13.260;2024-03-02T04:35:39;118.72;;;31.38;;
71462;SDS011;59266;52.608;13.260;2024-03-02T04:38:05;95.85;;;32.22;;
71462;SDS011;59266;52.608;13.260;2024-03-02T04:40:32;92.63;;;32.10;;
71462;SDS011;59266;52.608;13.260;2024-03-02T04:42:58;107.70;;;31.98;;
71462;SDS011;59266;52.608;13.260;2024-03-02T04:45:25;109.70;;;31.70;;
71462;SDS011;59266;52.608;13.260;2024-03-02T04:47:52;118.55;;;32.75;;
71462;SDS011;59266;52.608;13.260;2024-03-02T04:52:53;108.65;;;31.40;;
71462;SDS011;59266;52.608;13.260;2024-03-02T04:55:20;102.40;;;31.65;;
71462;SDS011;59266;52.608;13.260;2024-03-02T04:58:12;113.85;;;31.08;;
71462;SDS011;59266;52.608;13.260;2024-03-02T05:00:39;112.28;;;32.75;;
71462;SDS011;59266;52.608;13.260;2024-03-02T05:03:06;99.88;;;31.85;;
71462;SDS011;59266;52.608;13.260;2024-03-02T05:05:32;130.75;;;33.75;;
71462;SDS011;59266;52.608;13.260;2024-03-02T05:07:59;146.82;;;32.83;;
71462;SDS011;59266;52.608;13.260;2024-03-02T05:10:25;121.20;;;33.10;;
71462;SDS011;59266;52.608;13.260;2024-03-02T05:12:52;112.85;;;31.60;;
71462;SDS011;59266;52.608;13.260;2024-03-02T05:15:26;109.30;;;32.08;;
71462;SDS011;59266;52.608;13.260;2024-03-02T05:17:53;101.35;;;30.95;;
71462;SDS011;59266;52.608;13.260;2024-03-02T05:20:21;130.25;;;33.20;;
71462;SDS011;59266;52.608;13.260;2024-03-02T05:22:51;113.40;;;32.95;;
71462;SDS011;59266;52.608;13.260;2024-03-02T05:25:18;136.18;;;33.13;;
71462;SDS011;59266;52.608;13.260;2024-03-02T05:27:45;113.57;;;32.17;;
71462;SDS011;59266;52.608;13.260;2024-03-02T05:30:12;96.97;;;32.17;;
71462;SDS011;59266;52.608;13.260;2024-03-02T05:32:39;108.97;;;32.33;;
71462;SDS011;59266;52.608;13.260;2024-03-02T05:35:06;121.57;;;32.33;;
71462;SDS011;59266;52.608;13.260;2024-03-02T05:37:34;120.32;;;34.13;;
71462;SDS011;59266;52.608;13.260;2024-03-02T05:40:00;112.35;;;33.65;;
71462;SDS011;59266;52.608;13.260;2024-03-02T05:42:28;142.43;;;35.05;;
71462;SDS011;59266;52.608;13.260;2024-03-02T05:44:55;114.30;;;33.05;;
71462;SDS011;59266;52.608;13.260;2024-03-02T05:47:21;124.13;;;35.28;;
71462;SDS011;59266;52.608;13.260;2024-03-02T05:49:48;140.32;;;39.05;;
71462;SDS011;59266;52.608;13.260;2024-03-02T05:52:14;131.32;;;36.67;;
71462;SDS011;59266;52.608;13.260;2024-03-02T05:54:41;139.50;;;37.50;;
71462;SDS011;59266;52.608;13.260;2024-03-02T05:57:08;121.07;;;37.03;;
71462;SDS011;59266;52.608;13.260;2024-03-02T05:59:52;135.75;;;37.97;;
71462;SDS011;59266;52.608;13.260;2024-03-02T06:02:20;132.50;;;38.58;;
71462;SDS011;59266;52.608;13.260;2024-03-02T06:04:47;130.55;;;37.90;;
71462;SDS011;59266;52.608;13.260;2024-03-02T06:07:13;131.23;;;36.25;;
71462;SDS011;59266;52.608;13.260;2024-03-02T06:09:40;117.43;;;36.42;;
71462;SDS011;59266;52.608;13.260;2024-03-02T06:12:07;127.72;;;35.58;;
71462;SDS011;59266;52.608;13.260;2024-03-02T06:14:34;125.93;;;36.08;;
71462;SDS011;59266;52.608;13.260;2024-03-02T06:17:00;131.65;;;35.97;;
71462;SDS011;59266;52.608;13.260;2024-03-02T06:19:27;126.55;;;36.05;;
71462;SDS011;59266;52.608;13.260;2024-03-02T06:21:57;126.25;;;36.50;;
71462;SDS011;59266;52.608;13.260;2024-03-02T06:24:24;135.90;;;35.13;;
71462;SDS011;59266;52.608;13.260;2024-03-02T06:26:52;132.43;;;36.80;;
71462;SDS011;59266;52.608;13.260;2024-03-02T06:29:19;126.43;;;35.63;;
71462;SDS011;59266;52.608;13.260;2024-03-02T06:31:45;117.53;;;34.45;;
71462;SDS011;59266;52.608;13.260;2024-03-02T06:34:12;112.40;;;34.15;;
71462;SDS011;59266;52.608;13.260;2024-03-02T06:36:38;118.65;;;35.15;;
71462;SDS011;59266;52.608;13.260;2024-03-02T06:39:06;114.28;;;31.95;;
71462;SDS011;59266;52.608;13.260;2024-03-02T06:41:33;112.20;;;33.50;;
71462;SDS011;59266;52.608;13.260;2024-03-02T06:43:59;116.10;;;34.50;;
71462;SDS011;59266;52.608;13.260;2024-03-02T06:46:26;108.82;;;32.60;;
71462;SDS011;59266;52.608;13.260;2024-03-02T06:48:53;104.95;;;32.30;;
71462;SDS011;59266;52.608;13.260;2024-03-02T06:51:20;97.28;;;33.10;;
71462;SDS011;59266;52.608;13.260;2024-03-02T06:53:46;93.57;;;32.17;;
71462;SDS011;59266;52.608;13.260;2024-03-02T06:56:13;85.90;;;30.75;;
71462;SDS011;59266;52.608;13.260;2024-03-02T06:58:40;94.20;;;32.90;;
71462;SDS011;59266;52.608;13.260;2024-03-02T07:01:06;84.93;;;30.55;;
71462;SDS011;59266;52.608;13.260;2024-03-02T07:03:33;91.93;;;32.30;;
71462;SDS011;59266;52.608;13.260;2024-03-02T07:06:00;97.57;;;31.05;;
71462;SDS011;59266;52.608;13.260;2024-03-02T07:08:26;87.85;;;31.50;;
71462;SDS011;59266;52.608;13.260;2024-03-02T07:10:53;76.68;;;28.98;;
71462;SDS011;59266;52.608;13.260;2024-03-02T07:13:20;69.38;;;27.70;;
71462;SDS011;59266;52.608;13.260;2024-03-02T07:15:46;77.57;;;30.83;;
71462;SDS011;59266;52.608;13.260;2024-03-02T07:18:33;83.03;;;30.35;;
71462;SDS011;59266;52.608;13.260;2024-03-02T07:21:01;78.93;;;31.00;;
71462;SDS011;59266;52.608;13.260;2024-03-02T07:23:28;77.03;;;29.45;;
71462;SDS011;59266;52.608;13.260;2024-03-02T07:25:54;88.40;;;30.77;;
71462;SDS011;59266;52.608;13.260;2024-03-02T07:28:25;89.30;;;32.00;;
71462;SDS011;59266;52.608;13.260;2024-03-02T07:31:02;83.43;;;31.92;;
71462;SDS011;59266;52.608;13.260;2024-03-02T07:33:31;84.00;;;32.47;;
71462;SDS011;59266;52.608;13.260;2024-03-02T07:35:58;80.45;;;32.05;;
71462;SDS011;59266;52.608;13.260;2024-03-02T07:38:30;85.20;;;32.08;;
71462;SDS011;59266;52.608;13.260;2024-03-02T07:40:57;92.20;;;31.67;;
71462;SDS011;59266;52.608;13.260;2024-03-02T07:43:24;89.47;;;31.98;;
71462;SDS011;59266;52.608;13.260;2024-03-02T07:45:50;98.13;;;32.47;;
71462;SDS011;59266;52.608;13.260;2024-03-02T07:48:17;86.30;;;31.63;;
71462;SDS011;59266;52.608;13.260;2024-03-02T07:53:23;75.88;;;28.40;;
71462;SDS011;59266;52.608;13.260;2024-03-02T07:55:49;73.07;;;29.60;;
71462;SDS011;59266;52.608;13.260;2024-03-02T07:58:16;79.22;;;28.98;;
71462;SDS011;59266;52.608;13.260;2024-03-02T08:00:46;82.47;;;30.38;;
71462;SDS011;59266;52.608;13.260;2024-03-02T08:03:13;74.03;;;28.88;;
71462;SDS011;59266;52.608;13.260;2024-03-02T08:05:40;75.43;;;28.50;;
71462;SDS011;59266;52.608;13.260;2024-03-02T08:08:06;81.80;;;29.92;;
71462;SDS011;59266;52.608;13.260;2024-03-02T08:10:33;72.35;;;28.65;;
71462;SDS011;59266;52.608;13.260;2024-03-02T08:13:00;72.30;;;28.30;;
71462;SDS011;59266;52.608;13.260;2024-03-02T08:15:26;74.28;;;27.52;;
71462;SDS011;59266;52.608;13.260;2024-03-02T08:17:53;75.07;;;28.02;;
71462;SDS011;59266;52.608;13.260;2024-03-02T08:20:23;73.05;;;27.00;;
71462;SDS011;59266;52.608;13.260;2024-03-02T08:22:49;83.10;;;28.45;;
71462;SDS011;59266;52.608;13.260;2024-03-02T08:25:16;69.32;;;27.70;;
71462;SDS011;59266;52.608;13.260;2024-03-02T08:27:43;75.78;;;28.60;;
71462;SDS011;59266;52.608;13.260;2024-03-02T08:30:10;74.30;;;27.38;;
71462;SDS011;59266;52.608;13.260;2024-03-02T08:32:37;69.45;;;28.58;;
71462;SDS011;59266;52.608;13.260;2024-03-02T08:35:04;78.38;;;28.42;;
71462;SDS011;59266;52.608;13.260;2024-03-02T08:37:31;83.78;;;29.30;;
71462;SDS011;59266;52.608;13.260;2024-03-02T08:39:57;77.93;;;29.27;;
71462;SDS011;59266;52.608;13.260;2024-03-02T08:42:24;72.53;;;28.17;;
71462;SDS011;59266;52.608;13.260;2024-03-02T08:44:50;75.63;;;29.52;;
71462;SDS011;59266;52.608;13.260;2024-03-02T08:47:17;66.15;;;26.65;;
71462;SDS011;59266;52.608;13.260;2024-03-02T08:49:44;76.32;;;29.23;;
71462;SDS011;59266;52.608;13.260;2024-03-02T08:52:10;68.28;;;27.27;;
71462;SDS011;59266;52.608;13.260;2024-03-02T08:54:37;67.97;;;26.52;;
71462;SDS011;59266;52.608;13.260;2024-03-02T08:57:05;62.88;;;27.30;;
71462;SDS011;59266;52.608;13.260;2024-03-02T08:59:31;66.97;;;27.13;;
71462;SDS011;59266;52.608;13.260;2024-03-02T09:01:58;68.95;;;27.15;;
71462;SDS011;59266;52.608;13.260;2024-03-02T09:04:25;70.15;;;28.05;;
71462;SDS011;59266;52.608;13.260;2024-03-02T09:06:54;61.13;;;26.15;;
71462;SDS011;59266;52.608;13.260;2024-03-02T09:09:21;70.13;;;26.45;;
71462;SDS011;59266;52.608;13.260;2024-03-02T09:11:47;70.15;;;27.85;;
71462;SDS011;59266;52.608;13.260;2024-03-02T09:14:14;76.32;;;29.98;;
71462;SDS011;59266;52.608;13.260;2024-03-02T09:16:42;64.28;;;25.48;;
71462;SDS011;59266;52.608;13.260;2024-03-02T09:19:09;66.18;;;26.58;;
71462;SDS011;59266;52.608;13.260;2024-03-02T09:21:36;63.63;;;26.50;;
71462;SDS011;59266;52.608;13.260;2024-03-02T09:24:03;72.18;;;28.52;;
71462;SDS011;59266;52.608;13.260;2024-03-02T09:26:30;63.22;;;25.80;;
71462;SDS011;59266;52.608;13.260;2024-03-02T09:28:56;73.18;;;27.65;;
71462;SDS011;59266;52.608;13.260;2024-03-02T09:31:23;60.50;;;25.50;;
71462;SDS011;59266;52.608;13.260;2024-03-02T09:33:49;62.63;;;26.50;;
71462;SDS011;59266;52.608;13.260;2024-03-02T09:36:17;74.13;;;29.45;;
71462;SDS011;59266;52.608;13.260;2024-03-02T09:38:44;66.93;;;27.27;;
71462;SDS011;59266;52.608;13.260;2024-03-02T09:41:11;60.92;;;25.40;;
71462;SDS011;59266;52.608;13.260;2024-03-02T09:43:38;60.78;;;26.58;;
71462;SDS011;59266;52.608;13.260;2024-03-02T09:46:08;60.50;;;25.15;;
71462;SDS011;59266;52.608;13.260;2024-03-02T09:48:35;62.88;;;27.30;;
71462;SDS011;59266;52.608;13.260;2024-03-02T09:51:04;60.03;;;23.95;;
71462;SDS011;59266;52.608;13.260;2024-03-02T09:53:31;57.03;;;25.02;;
71462;SDS011;59266;52.608;13.260;2024-03-02T09:56:01;58.80;;;25.77;;
71462;SDS011;59266;52.608;13.260;2024-03-02T09:58:27;52.53;;;23.98;;
71462;SDS011;59266;52.608;13.260;2024-03-02T10:00:55;56.83;;;24.60;;
71462;SDS011;59266;52.608;13.260;2024-03-02T10:03:22;56.88;;;24.73;;
71462;SDS011;59266;52.608;13.260;2024-03-02T10:05:51;57.28;;;25.45;;
71462;SDS011;59266;52.608;13.260;2024-03-02T10:08:18;53.97;;;24.45;;
71462;SDS011;59266;52.608;13.260;2024-03-02T10:10:45;58.17;;;23.60;;
71462;SDS011;59266;52.608;13.260;2024-03-02T10:13:12;53.70;;;24.98;;
71462;SDS011;59266;52.608;13.260;2024-03-02T10:15:40;54.88;;;22.27;;
71462;SDS011;59266;52.608;13.260;2024-03-02T10:18:11;51.83;;;24.00;;
71462;SDS011;59266;52.608;13.260;2024-03-02T10:23:42;55.33;;;22.70;;
71462;SDS011;59266;52.608;13.260;2024-03-02T10:26:18;48.42;;;22.35;;
71462;SDS011;59266;52.608;13.260;2024-03-02T10:28:48;51.17;;;21.40;;
71462;SDS011;59266;52.608;13.260;2024-03-02T10:31:14;46.00;;;21.35;;
71462;SDS011;59266;52.608;13.260;2024-03-02T10:33:41;51.22;;;21.30;;
71462;SDS011;59266;52.608;13.260;2024-03-02T10:36:08;40.72;;;20.52;;
71462;SDS011;59266;52.608;13.260;2024-03-02T10:38:35;47.10;;;20.67;;
71462;SDS011;59266;52.608;13.260;2024-03-02T10:41:02;43.65;;;21.55;;
71462;SDS011;59266;52.608;13.260;2024-03-02T10:43:29;46.90;;;21.55;;
71462;SDS011;59266;52.608;13.260;2024-03-02T10:45:57;41.05;;;20.25;;
71462;SDS011;59266;52.608;13.260;2024-03-02T10:48:24;40.45;;;19.08;;
71462;SDS011;59266;52.608;13.260;2024-03-02T10:50:53;42.25;;;19.00;;
71462;SDS011;59266;52.608;13.260;2024-03-02T10:53:20;42.20;;;19.10;;
71462;SDS011;59266;52.608;13.260;2024-03-02T10:55:46;44.55;;;20.02;;
71462;SDS011;59266;52.608;13.260;2024-03-02T10:58:21;40.88;;;18.92;;
71462;SDS011;59266;52.608;13.260;2024-03-02T11:00:50;35.22;;;17.70;;
71462;SDS011;59266;52.608;13.260;2024-03-02T11:03:17;38.70;;;17.98;;
71462;SDS011;59266;52.608;13.260;2024-03-02T11:05:44;35.38;;;18.48;;
71462;SDS011;59266;52.608;13.260;2024-03-02T11:08:13;32.88;;;16.30;;
71462;SDS011;59266;52.608;13.260;2024-03-02T11:10:48;32.95;;;16.35;;
71462;SDS011;59266;52.608;13.260;2024-03-02T11:13:21;33.60;;;16.42;;
71462;SDS011;59266;52.608;13.260;2024-03-02T11:15:51;31.90;;;16.15;;
71462;SDS011;59266;52.608;13.260;2024-03-02T11:18:21;30.25;;;16.15;;
71462;SDS011;59266;52.608;13.260;2024-03-02T11:20:48;31.45;;;16.20;;
71462;SDS011;59266;52.608;13.260;2024-03-02T11:23:15;32.00;;;15.65;;
71462;SDS011;59266;52.608;13.260;2024-03-02T11:25:41;35.47;;;16.40;;
71462;SDS011;59266;52.608;13.260;2024-03-02T11:28:08;35.00;;;16.70;;
71462;SDS011;59266;52.608;13.260;2024-03-02T11:33:05;34.83;;;16.15;;
71462;SDS011;59266;52.608;13.260;2024-03-02T11:35:34;30.50;;;15.00;;
71462;SDS011;59266;52.608;13.260;2024-03-02T11:38:01;32.03;;;15.35;;
71462;SDS011;59266;52.608;13.260;2024-03-02T11:40:30;32.78;;;16.13;;
71462;SDS011;59266;52.608;13.260;2024-03-02T11:42:57;31.98;;;14.98;;
71462;SDS011;59266;52.608;13.260;2024-03-02T11:45:26;30.45;;;16.15;;
71462;SDS011;59266;52.608;13.260;2024-03-02T11:47:54;31.00;;;15.15;;
71462;SDS011;59266;52.608;13.260;2024-03-02T11:50:39;32.20;;;15.68;;
71462;SDS011;59266;52.608;13.260;2024-03-02T11:53:07;30.02;;;13.40;;
71462;SDS011;59266;52.608;13.260;2024-03-02T11:55:36;30.02;;;14.43;;
71462;SDS011;59266;52.608;13.260;2024-03-02T11:58:04;25.83;;;12.88;;
71462;SDS011;59266;52.608;13.260;2024-03-02T12:00:30;27.83;;;13.65;;
71462;SDS011;59266;52.608;13.260;2024-03-02T12:03:04;23.40;;;11.63;;
71462;SDS011;59266;52.608;13.260;2024-03-02T12:05:32;25.10;;;14.50;;
71462;SDS011;59266;52.608;13.260;2024-03-02T12:08:00;28.30;;;13.00;;
71462;SDS011;59266;52.608;13.260;2024-03-02T12:10:28;27.52;;;13.13;;
71462;SDS011;59266;52.608;13.260;2024-03-02T12:13:03;28.45;;;13.32;;
71462;SDS011;59266;52.608;13.260;2024-03-02T12:15:32;25.48;;;12.95;;
71462;SDS011;59266;52.608;13.260;2024-03-02T12:18:01;25.33;;;12.30;;
71462;SDS011;59266;52.608;13.260;2024-03-02T12:20:28;26.13;;;12.80;;
71462;SDS011;59266;52.608;13.260;2024-03-02T12:22:57;29.05;;;13.98;;
71462;SDS011;59266;52.608;13.260;2024-03-02T12:25:26;25.73;;;12.13;;
71462;SDS011;59266;52.608;13.260;2024-03-02T12:27:54;26.30;;;13.27;;
71462;SDS011;59266;52.608;13.260;2024-03-02T12:30:22;32.83;;;13.95;;
71462;SDS011;59266;52.608;13.260;2024-03-02T12:32:49;25.02;;;12.10;;
71462;SDS011;59266;52.608;13.260;2024-03-02T12:35:17;23.70;;;12.38;;
71462;SDS011;59266;52.608;13.260;2024-03-02T12:37:48;26.85;;;12.93;;
71462;SDS011;59266;52.608;13.260;2024-03-02T12:40:16;26.10;;;12.90;;
71462;SDS011;59266;52.608;13.260;2024-03-02T12:42:47;26.92;;;13.70;;
71462;SDS011;59266;52.608;13.260;2024-03-02T12:45:15;27.08;;;13.07;;
71462;SDS011;59266;52.608;13.260;2024-03-02T12:47:42;25.77;;;13.27;;
71462;SDS011;59266;52.608;13.260;2024-03-02T12:50:09;26.40;;;12.70;;
71462;SDS011;59266;52.608;13.260;2024-03-02T12:52:36;27.88;;;12.85;;
71462;SDS011;59266;52.608;13.260;2024-03-02T12:55:03;25.27;;;12.82;;
71462;SDS011;59266;52.608;13.260;2024-03-02T12:57:32;23.65;;;11.70;;
71462;SDS011;59266;52.608;13.260;2024-03-02T12:59:59;24.75;;;12.65;;
71462;SDS011;59266;52.608;13.260;2024-03-02T13:02:28;25.17;;;12.20;;
71462;SDS011;59266;52.608;13.260;2024-03-02T13:04:55;27.77;;;12.93;;
71462;SDS011;59266;52.608;13.260;2024-03-02T13:07:25;24.92;;;12.02;;
71462;SDS011;59266;52.608;13.260;2024-03-02T13:09:53;27.33;;;13.60;;
71462;SDS011;59266;52.608;13.260;2024-03-02T13:12:24;28.55;;;14.05;;
71462;SDS011;59266;52.608;13.260;2024-03-02T13:14:54;25.05;;;12.80;;
71462;SDS011;59266;52.608;13.260;2024-03-02T13:17:20;26.30;;;13.68;;
71462;SDS011;59266;52.608;13.260;2024-03-02T13:19:50;27.15;;;14.02;;
71462;SDS011;59266;52.608;13.260;2024-03-02T13:22:19;25.60;;;13.93;;
71462;SDS011;59266;52.608;13.260;2024-03-02T13:24:46;27.98;;;13.50;;
71462;SDS011;59266;52.608;13.260;2024-03-02T13:27:13;26.08;;;14.07;;
71462;SDS011;59266;52.608;13.260;2024-03-02T14:19:14;21.60;;;9.13;;
71462;SDS011;59266;52.608;13.260;2024-03-02T14:21:40;19.80;;;9.98;;
71462;SDS011;59266;52.608;13.260;2024-03-02T14:24:07;18.48;;;9.98;;
71462;SDS011;59266;52.608;13.260;2024-03-02T14:33:07;18.77;;;9.23;;
71462;SDS011;59266;52.608;13.260;2024-03-02T14:35:34;21.00;;;9.43;;
71462;SDS011;59266;52.608;13.260;2024-03-02T14:38:00;18.40;;;9.40;;
71462;SDS011;59266;52.608;13.260;2024-03-02T14:40:27;19.67;;;9.25;;
71462;SDS011;59266;52.608;13.260;2024-03-02T14:42:55;20.45;;;9.80;;
71462;SDS011;59266;52.608;13.260;2024-03-02T14:45:22;16.70;;;8.27;;
71462;SDS011;59266;52.608;13.260;2024-03-02T14:47:50;20.10;;;10.13;;
71462;SDS011;59266;52.608;13.260;2024-03-02T14:50:18;25.40;;;9.05;;
71462;SDS011;59266;52.608;13.260;2024-03-02T14:52:45;17.08;;;8.55;;
71462;SDS011;59266;52.608;13.260;2024-03-02T14:55:14;20.38;;;8.45;;
71462;SDS011;59266;52.608;13.260;2024-03-02T14:57:41;18.73;;;9.73;;
71462;SDS011;59266;52.608;13.260;2024-03-02T15:00:07;19.15;;;8.30;;
71462;SDS011;59266;52.608;13.260;2024-03-02T15:02:34;18.52;;;8.82;;
71462;SDS011;59266;52.608;13.260;2024-03-02T15:05:01;23.75;;;9.07;;
71462;SDS011;59266;52.608;13.260;2024-03-02T15:07:28;23.70;;;9.73;;
71462;SDS011;59266;52.608;13.260;2024-03-02T15:09:54;19.35;;;9.02;;
71462;SDS011;59266;52.608;13.260;2024-03-02T15:12:21;19.95;;;9.15;;
71462;SDS011;59266;52.608;13.260;2024-03-02T15:14:47;18.35;;;8.70;;
71462;SDS011;59266;52.608;13.260;2024-03-02T15:17:14;17.77;;;8.63;;
71462;SDS011;59266;52.608;13.260;2024-03-02T15:19:45;16.95;;;8.00;;
71462;SDS011;59266;52.608;13.260;2024-03-02T15:22:12;17.65;;;8.50;;